Terminal Aerodrome Forecast
Issued by NWS

Home | Current Version | Previous Version | Text Only | Print | Product List | Glossary On
Versions: 1 2 3 4 5 6 7 8 9 10 11 12 13 14 15 16 17 18 19 20 21
341
FTUS43 KDLH 100947 AAA
TAFBRD
TAF AMD
KBRD 100947Z 1010/1106 32005KT P6SM OVC019
     FM101600 00000KT P6SM SCT025
     FM110400 09005KT 2SM -SN OVC015=

USA.gov is the U.S. government's official web portal to all federal, state and local government web resources and services.